X  Schließen METAR Luftfahrt Wetterdaten        LELL Aeropuerto de Barcelona Josep Tarradellas
Temperatur
55°F Temperatur
46°F Taupunkt
72% Feuchtigkeit



Wind
10 MPS
17 KM/S
4 M/S
9 KTS



120°
OSO
Aktuelle Wetterlage

Mostly Clear Größtenteils klar
Luftdruck 1022 (hPa) - 30.18 (inHg)
Sichtweite 6 (Meile) - 10 (Km)
Flughafen
Flughafen Code LELL

Position : Aeropuerto de Barcelona Josep Tarradellas
Entfernung: 20 (mi)

Metar:
METAR LELL 271900Z AUTO 12009KT 9999 FEW018 13/08 Q1022

Zeit: 27-03-2023 21:00 CEST